Gaschem Phoenix — ELUO6 — position and weather

sailwx.info

Track history (hours):
 
Tides and Currents Weather Stations Pressure Air Temp Water Temp Dewpoint Dewpoint Depression Visibility Wind Speed Wind Dir Waves Ship Positions

Gaschem Phoenix

Last reported at 2016-Jul-28 17:33 UTC. Time now 2016-Aug-25 13:14 UTC.
Position N 31°00' E 122°27'.
Warning: this ship's position is 27 days out of date.

Length 100 m.

MMSI: 636090235.

Date/timePositionNaut miles runAvg speedWind from/ knotsBaromVisibWave heightAir tempDewpointWater temp
2016-Jul-28 17:33N 31°00' E 122°27'9 9.1
2016-Jul-28 16:31N 31°02' E 122°16'1312.1
2016-Jul-28 15:25N 31°05' E 122°01'1414.5
2016-Jul-28 14:27N 31°14' E 121°48'1213.1
2016-Jul-28 13:33N 31°22' E 121°38'1110.9
2016-Jul-28 12:33N 31°28' E 121°27'1212.2
2016-Jul-28 11:33N 31°36' E 121°17'1212.1
2016-Jul-28 10:33N 31°44' E 121°06'1211.7
2016-Jul-28 09:30N 31°51' E 120°54'1411.5
2016-Jul-28 08:18N 32°00' E 120°42'1213.9
2016-Jul-28 07:28N 32°02' E 120°28'1313.7
2016-Jul-28 06:30N 31°56' E 120°14'1412.8
2016-Jul-28 05:26N 31°60' E 119°59'  
2016-Jul-24 05:29N 32°05' E 119°56'7 7.1
2016-Jul-24 04:33N 31°59' E 119°60'8 7.0
2016-Jul-24 03:26N 31°56' E 120°08'6 6.7
2016-Jul-24 02:33N 31°56' E 120°15'7 7.3
2016-Jul-24 01:32N 32°00' E 120°22'8 8.3
2016-Jul-24 00:33N 32°04' E 120°31'9 8.6
2016-Jul-23 23:33N 31°60' E 120°40'12 8.5
2016-Jul-23 22:09N 31°55' E 120°53'811.2
2016-Jul-23 21:28N 31°48' E 120°55'1111.6
2016-Jul-23 20:34N 31°44' E 121°07'1313.0
2016-Jul-23 19:33N 31°35' E 121°18'2 1.4
2016-Jul-23 18:12N 31°34' E 121°20'0 0.0
2016-Jul-23 17:33N 31°34' E 121°20'0 0.1
2016-Jul-23 16:32N 31°34' E 121°20'0 0.1
2016-Jul-23 15:32N 31°34' E 121°20'0 0.0
2016-Jul-23 14:32N 31°34' E 121°20'0 0.0
2016-Jul-23 13:31N 31°34' E 121°20'0 0.0
2016-Jul-23 12:31N 31°34' E 121°20'0 0.0
2016-Jul-23 11:33N 31°34' E 121°20'0 0.0
2016-Jul-23 10:33N 31°34' E 121°20'0 0.0
2016-Jul-23 09:32N 31°34' E 121°20'1 0.6
2016-Jul-23 08:33N 31°34' E 121°20'10 9.5
2016-Jul-23 07:33N 31°27' E 121°28'9 9.0
2016-Jul-23 06:33N 31°22' E 121°37'  
Track history (hours):
 
Tides and Currents Weather Stations Pressure Air Temp Water Temp Dewpoint Dewpoint Depression Visibility Wind Speed Wind Dir Waves Ship Positions

Gaschem Phoenix

Last reported at 2016-Jul-28 17:33 UTC. Time now 2016-Aug-25 13:14 UTC.
Position N 31°00' E 122°27'.
Warning: this ship's position is 27 days out of date.

Length 100 m.

MMSI: 636090235.

Date/timePositionNaut miles runAvg speedWind from/ knotsBaromVisibWave heightAir tempDewpointWater temp
2016-Jul-28 17:33N 31°00' E 122°27'9 9.1
2016-Jul-28 16:31N 31°02' E 122°16'1312.1
2016-Jul-28 15:25N 31°05' E 122°01'1414.5
2016-Jul-28 14:27N 31°14' E 121°48'1213.1
2016-Jul-28 13:33N 31°22' E 121°38'1110.9
2016-Jul-28 12:33N 31°28' E 121°27'1212.2
2016-Jul-28 11:33N 31°36' E 121°17'1212.1
2016-Jul-28 10:33N 31°44' E 121°06'1211.7
2016-Jul-28 09:30N 31°51' E 120°54'1411.5
2016-Jul-28 08:18N 32°00' E 120°42'1213.9
2016-Jul-28 07:28N 32°02' E 120°28'1313.7
2016-Jul-28 06:30N 31°56' E 120°14'1412.8
2016-Jul-28 05:26N 31°60' E 119°59'  
2016-Jul-24 05:29N 32°05' E 119°56'7 7.1
2016-Jul-24 04:33N 31°59' E 119°60'8 7.0
2016-Jul-24 03:26N 31°56' E 120°08'6 6.7
2016-Jul-24 02:33N 31°56' E 120°15'7 7.3
2016-Jul-24 01:32N 32°00' E 120°22'8 8.3
2016-Jul-24 00:33N 32°04' E 120°31'9 8.6
2016-Jul-23 23:33N 31°60' E 120°40'12 8.5
2016-Jul-23 22:09N 31°55' E 120°53'811.2
2016-Jul-23 21:28N 31°48' E 120°55'1111.6
2016-Jul-23 20:34N 31°44' E 121°07'1313.0
2016-Jul-23 19:33N 31°35' E 121°18'2 1.4
2016-Jul-23 18:12N 31°34' E 121°20'0 0.0
2016-Jul-23 17:33N 31°34' E 121°20'0 0.1
2016-Jul-23 16:32N 31°34' E 121°20'0 0.1
2016-Jul-23 15:32N 31°34' E 121°20'0 0.0
2016-Jul-23 14:32N 31°34' E 121°20'0 0.0
2016-Jul-23 13:31N 31°34' E 121°20'0 0.0
2016-Jul-23 12:31N 31°34' E 121°20'0 0.0
2016-Jul-23 11:33N 31°34' E 121°20'0 0.0
2016-Jul-23 10:33N 31°34' E 121°20'0 0.0
2016-Jul-23 09:32N 31°34' E 121°20'1 0.6
2016-Jul-23 08:33N 31°34' E 121°20'10 9.5
2016-Jul-23 07:33N 31°27' E 121°28'9 9.0
2016-Jul-23 06:33N 31°22' E 121°37'  

Dump ship's entire track history